Time;durP1;ratioP1;P1;durP2;ratioP2;P2;SDS_P1;SDS_P2;PMS_P1;PMS_P2;Temp;Humidity;BMP_temperature;BMP_pressure;BME280_temperature;BME280_humidity;BME280_pressure;Samples;Min_cycle;Max_cycle;Signal;HPM_P1;HPM_P2
2022/07/29 00:00:07;;;;;;;2.47;1.10;;;22.30;52.20;;;;;;5026936;28;20576;-73
2022/07/29 00:02:34;;;;;;;2.53;0.90;;;22.30;52.30;;;;;;5010019;28;20186;-74
2022/07/29 00:05:00;;;;;;;1.83;0.70;;;22.30;52.40;;;;;;5010230;28;20715;-73
2022/07/29 00:07:26;;;;;;;5.80;1.00;;;22.30;52.50;;;;;;5011786;28;20569;-73
2022/07/29 00:09:52;;;;;;;2.33;1.20;;;22.30;52.70;;;;;;5011627;28;21544;-73
2022/07/29 00:12:20;;;;;;;1.60;0.80;;;22.30;52.80;;;;;;5012920;28;20187;-73
2022/07/29 00:14:46;;;;;;;1.90;0.80;;;22.30;53.00;;;;;;5016049;28;20177;-73
2022/07/29 00:17:12;;;;;;;3.73;1.07;;;22.30;53.00;;;;;;5010235;28;21134;-74
2022/07/29 00:19:38;;;;;;;2.60;0.70;;;22.30;53.20;;;;;;5011470;28;20613;-73
2022/07/29 00:22:04;;;;;;;2.70;0.80;;;22.30;53.10;;;;;;5010194;28;20980;-74
2022/07/29 00:24:30;;;;;;;3.00;0.77;;;22.30;53.30;;;;;;5011443;28;20198;-73
2022/07/29 00:26:56;;;;;;;2.47;0.80;;;22.30;53.30;;;;;;5010236;28;20565;-73
2022/07/29 00:29:22;;;;;;;1.87;0.77;;;22.30;53.40;;;;;;5010039;28;20574;-73
2022/07/29 00:31:48;;;;;;;2.33;0.97;;;22.30;53.40;;;;;;5011067;28;20573;-73
2022/07/29 00:36:58;;;;;;;3.60;0.90;;;22.30;53.70;;;;;;5011394;28;20570;-74
2022/07/29 00:39:23;;;;;;;1.53;0.63;;;22.30;53.60;;;;;;5009676;28;20663;-74
2022/07/29 00:41:50;;;;;;;3.63;1.00;;;22.30;53.60;;;;;;5011100;28;20194;-74
2022/07/29 00:44:16;;;;;;;2.67;0.97;;;22.30;53.80;;;;;;5012095;28;20181;-74
2022/07/29 00:46:41;;;;;;;3.73;0.90;;;22.30;53.80;;;;;;5014988;28;20568;-73
2022/07/29 00:49:08;;;;;;;3.10;1.03;;;22.30;53.90;;;;;;5013677;28;20578;-73
2022/07/29 00:51:37;;;;;;;4.10;0.90;;;22.30;54.00;;;;;;5013227;28;20577;-73
2022/07/29 00:54:04;;;;;;;2.70;1.43;;;22.30;54.30;;;;;;5014469;28;20576;-73
2022/07/29 00:56:30;;;;;;;1.53;0.83;;;22.30;54.20;;;;;;5014761;28;20597;-73
2022/07/29 00:58:57;;;;;;;2.23;1.20;;;22.30;55.00;;;;;;5014606;28;20961;-74
2022/07/29 01:01:23;;;;;;;2.10;0.90;;;22.30;54.50;;;;;;5013184;28;20565;-74
2022/07/29 01:03:49;;;;;;;2.20;1.00;;;22.30;54.60;;;;;;5013417;28;21159;-74
2022/07/29 01:06:19;;;;;;;2.17;1.00;;;22.30;54.80;;;;;;5012925;28;20566;-74
2022/07/29 01:08:47;;;;;;;2.10;0.90;;;22.30;54.80;;;;;;5013234;28;20584;-73
2022/07/29 01:11:14;;;;;;;2.50;1.00;;;22.30;55.60;;;;;;4996673;28;20613;-73
2022/07/29 01:13:42;;;;;;;1.67;0.80;;;22.30;55.20;;;;;;5013046;28;20616;-73
2022/07/29 01:16:17;;;;;;;1.67;0.80;;;22.30;55.40;;;;;;5014326;28;20665;-73
2022/07/29 01:18:48;;;;;;;2.43;0.80;;;22.30;55.60;;;;;;5014311;28;20952;-73
2022/07/29 01:21:38;;;;;;;2.73;0.73;;;22.30;55.50;;;;;;4996505;28;20723;-73
2022/07/29 01:24:23;;;;;;;4.10;1.43;;;22.20;55.80;;;;;;5013616;28;20562;-74
2022/07/29 01:26:52;;;;;;;2.97;1.00;;;22.30;55.60;;;;;;4996499;28;20580;-73
2022/07/29 01:29:26;;;;;;;2.17;0.90;;;22.20;55.70;;;;;;5014017;28;20619;-74
2022/07/29 01:32:14;;;;;;;2.53;0.90;;;22.20;56.10;;;;;;4996230;28;20607;-73
2022/07/29 01:34:55;;;;;;;1.80;1.00;;;22.20;56.10;;;;;;5012393;28;20569;-74
2022/07/29 01:37:46;;;;;;;3.10;0.80;;;22.20;56.00;;;;;;5013984;28;21229;-73
2022/07/29 01:40:33;;;;;;;2.07;0.70;;;22.20;56.40;;;;;;5012225;28;20589;-73
2022/07/29 01:43:01;;;;;;;2.83;1.00;;;22.20;56.50;;;;;;5013745;28;21143;-74
2022/07/29 01:45:42;;;;;;;3.60;0.97;;;22.20;56.40;;;;;;5013549;28;20577;-73
2022/07/29 01:48:23;;;;;;;1.60;0.80;;;22.10;56.80;;;;;;5013689;28;20966;-73
2022/07/29 01:51:05;;;;;;;2.27;1.00;;;22.10;56.60;;;;;;5013629;28;20603;-73
2022/07/29 01:53:50;;;;;;;3.30;1.27;;;22.10;56.60;;;;;;5012392;28;20601;-73
2022/07/29 01:56:19;;;;;;;3.47;1.00;;;22.10;56.90;;;;;;5011240;28;20577;-73
2022/07/29 01:58:48;;;;;;;4.57;0.70;;;22.10;56.90;;;;;;5013604;28;20977;-73
2022/07/29 02:01:16;;;;;;;2.43;0.70;;;22.10;57.20;;;;;;5011904;28;20581;-73
2022/07/29 02:03:45;;;;;;;3.00;1.00;;;22.10;57.40;;;;;;5012471;28;20664;-74
2022/07/29 02:06:12;;;;;;;3.17;0.80;;;22.10;57.40;;;;;;4995762;28;20592;-74
2022/07/29 02:08:39;;;;;;;5.13;0.80;;;22.10;57.40;;;;;;5028481;28;20635;-73
2022/07/29 02:11:06;;;;;;;2.53;0.90;;;22.10;57.40;;;;;;5013102;28;20597;-73
2022/07/29 02:13:35;;;;;;;2.93;0.80;;;22.00;57.50;;;;;;5011944;28;20597;-73
2022/07/29 02:16:04;;;;;;;3.60;0.90;;;22.00;57.80;;;;;;5012586;28;20676;-73
2022/07/29 02:18:30;;;;;;;3.20;0.93;;;22.00;57.80;;;;;;5015160;28;20625;-73
2022/07/29 02:20:59;;;;;;;3.83;1.10;;;21.90;57.80;;;;;;5014403;28;21021;-73
2022/07/29 02:23:25;;;;;;;3.77;1.10;;;21.90;58.00;;;;;;4995632;28;21008;-73
2022/07/29 02:25:53;;;;;;;3.20;0.90;;;21.80;58.10;;;;;;5013178;28;20664;-73
2022/07/29 02:28:21;;;;;;;2.20;0.90;;;21.80;58.40;;;;;;5013074;28;20577;-73
2022/07/29 02:30:50;;;;;;;1.40;0.70;;;21.80;58.60;;;;;;5011692;28;20573;-73
2022/07/29 02:33:18;;;;;;;2.47;0.90;;;21.70;58.60;;;;;;5012475;28;20760;-74
2022/07/29 02:35:45;;;;;;;3.30;1.10;;;21.70;58.80;;;;;;5012695;28;20576;-73
2022/07/29 02:41:04;;;;;;;2.57;0.90;;;21.60;59.30;;;;;;5011344;28;21136;-73
2022/07/29 02:43:31;;;;;;;3.47;0.90;;;21.60;59.60;;;;;;5012190;28;20594;-74
2022/07/29 02:46:00;;;;;;;2.60;1.00;;;21.50;59.60;;;;;;5012493;28;20570;-73
2022/07/29 02:48:40;;;;;;;3.80;1.20;;;21.50;59.80;;;;;;5012799;28;20605;-73
2022/07/29 02:51:11;;;;;;;2.67;0.93;;;21.40;60.80;;;;;;5012475;28;20577;-73
2022/07/29 02:53:41;;;;;;;1.67;1.00;;;21.40;60.60;;;;;;5012586;28;20704;-73
2022/07/29 02:56:12;;;;;;;2.63;1.00;;;21.40;60.90;;;;;;5011052;28;21148;-73
2022/07/29 02:58:42;;;;;;;4.20;0.90;;;21.30;61.40;;;;;;5010236;28;20724;-74
2022/07/29 03:01:14;;;;;;;3.83;0.90;;;21.30;61.70;;;;;;4991221;28;20613;-73
2022/07/29 03:03:43;;;;;;;1.90;0.80;;;21.20;62.10;;;;;;4992679;28;20649;-74
2022/07/29 03:06:11;;;;;;;2.07;1.00;;;21.20;62.30;;;;;;4992284;28;20567;-73
2022/07/29 03:08:37;;;;;;;2.67;1.10;;;21.20;62.70;;;;;;4992540;28;20624;-74
2022/07/29 03:11:04;;;;;;;2.80;1.20;;;21.10;63.20;;;;;;4992542;28;20677;-73
2022/07/29 03:13:30;;;;;;;3.37;1.00;;;21.10;63.80;;;;;;5007717;28;20594;-74
2022/07/29 03:15:59;;;;;;;4.40;0.87;;;21.10;64.20;;;;;;4992167;28;20729;-73
2022/07/29 03:18:25;;;;;;;4.13;1.03;;;21.10;64.60;;;;;;4992457;28;20617;-73
2022/07/29 03:20:51;;;;;;;8.37;1.10;;;21.00;64.60;;;;;;4991185;28;20629;-73
2022/07/29 03:23:22;;;;;;;2.57;1.07;;;21.00;64.90;;;;;;4991192;28;21162;-73
2022/07/29 03:25:49;;;;;;;4.67;0.80;;;21.00;65.40;;;;;;4992204;28;20553;-73
2022/07/29 03:28:15;;;;;;;2.33;1.03;;;21.00;65.40;;;;;;4992283;28;20967;-73
2022/07/29 03:30:40;;;;;;;6.57;1.60;;;21.00;65.50;;;;;;4992294;28;20566;-74
2022/07/29 03:33:06;;;;;;;2.43;0.90;;;20.90;65.80;;;;;;4992115;28;20725;-74
2022/07/29 03:35:32;;;;;;;2.73;1.00;;;20.90;66.00;;;;;;4992145;28;20680;-74
2022/07/29 03:37:58;;;;;;;1.70;0.80;;;20.90;66.40;;;;;;4992110;28;20179;-74
2022/07/29 03:40:45;;;;;;;3.17;1.30;;;20.80;66.60;;;;;;4992273;28;20167;-74
2022/07/29 03:43:14;;;;;;;4.80;1.47;;;20.80;67.10;;;;;;4990907;28;20628;-74
2022/07/29 03:45:44;;;;;;;2.53;0.83;;;20.90;67.20;;;;;;4992058;28;20577;-74
2022/07/29 03:48:13;;;;;;;2.00;0.73;;;20.80;67.50;;;;;;4991111;28;21002;-74
2022/07/29 03:50:39;;;;;;;2.57;0.90;;;20.80;67.60;;;;;;4992072;28;20610;-74
2022/07/29 03:53:05;;;;;;;2.73;0.80;;;20.80;67.60;;;;;;4992012;28;21157;-73
2022/07/29 03:55:37;;;;;;;3.93;1.37;;;20.90;67.90;;;;;;4991863;28;20622;-73
2022/07/29 03:58:03;;;;;;;4.07;0.90;;;20.90;68.10;;;;;;4992028;28;20205;-74
2022/07/29 04:00:30;;;;;;;3.53;1.27;;;20.90;68.80;;;;;;4992190;28;21226;-74
2022/07/29 04:02:57;;;;;;;4.50;1.00;;;20.90;67.90;;;;;;4992051;28;20928;-73
2022/07/29 04:05:23;;;;;;;5.67;0.90;;;20.90;68.20;;;;;;4990330;28;20720;-74
2022/07/29 04:07:49;;;;;;;2.43;1.10;;;20.90;68.10;;;;;;4992024;28;20665;-74
2022/07/29 04:10:18;;;;;;;2.17;0.90;;;20.90;68.30;;;;;;4991925;28;20174;-73
2022/07/29 04:12:44;;;;;;;2.10;1.00;;;20.90;68.50;;;;;;5007202;28;20598;-73
2022/07/29 04:15:11;;;;;;;1.80;0.90;;;20.90;68.50;;;;;;4991691;28;20554;-73
2022/07/29 04:17:36;;;;;;;2.80;1.07;;;20.90;68.80;;;;;;4991833;28;21005;-74
2022/07/29 04:20:03;;;;;;;4.90;1.00;;;20.90;69.20;;;;;;4993053;28;20701;-74
2022/07/29 04:22:30;;;;;;;3.33;1.20;;;20.90;69.00;;;;;;4995497;28;20594;-73
2022/07/29 04:24:56;;;;;;;3.23;1.23;;;20.90;69.10;;;;;;4995266;28;20572;-73
2022/07/29 04:27:22;;;;;;;3.60;1.00;;;20.90;69.30;;;;;;4994549;28;20574;-74
2022/07/29 04:29:47;;;;;;;4.93;1.00;;;20.90;69.50;;;;;;4995586;28;20608;-74
2022/07/29 04:32:13;;;;;;;3.50;1.00;;;20.90;69.40;;;;;;4995382;28;20202;-74
2022/07/29 04:34:39;;;;;;;5.47;0.90;;;21.00;69.60;;;;;;5010375;28;20565;-73
2022/07/29 04:37:05;;;;;;;4.50;1.20;;;21.00;69.80;;;;;;4995460;28;20183;-74
2022/07/29 04:39:30;;;;;;;3.80;1.03;;;21.00;70.00;;;;;;4995539;28;20624;-74
2022/07/29 04:41:56;;;;;;;5.73;1.13;;;21.00;70.00;;;;;;4995254;28;20191;-74
2022/07/29 04:44:22;;;;;;;3.40;1.10;;;21.00;70.40;;;;;;4995295;28;20183;-74
2022/07/29 04:46:48;;;;;;;4.03;1.27;;;21.00;70.80;;;;;;4995516;28;20766;-74
2022/07/29 04:49:14;;;;;;;2.67;0.90;;;21.00;70.70;;;;;;4995573;28;20558;-74
2022/07/29 04:51:40;;;;;;;2.50;1.10;;;21.00;70.70;;;;;;4994975;28;20198;-73
2022/07/29 04:54:06;;;;;;;1.83;0.73;;;21.10;71.70;;;;;;4994350;28;20167;-74
2022/07/29 04:56:31;;;;;;;1.67;0.80;;;21.10;70.90;;;;;;4994251;28;20313;-74
2022/07/29 04:58:57;;;;;;;2.00;1.00;;;21.10;71.00;;;;;;4995116;28;20708;-74
2022/07/29 05:01:23;;;;;;;4.00;1.43;;;21.20;71.10;;;;;;4995026;28;20569;-74
2022/07/29 05:03:49;;;;;;;2.27;0.93;;;21.20;71.20;;;;;;4995200;28;20646;-74
2022/07/29 05:06:14;;;;;;;3.10;1.13;;;21.20;71.40;;;;;;4994975;28;20662;-73
2022/07/29 05:08:40;;;;;;;4.10;0.87;;;21.30;71.60;;;;;;4994981;28;20230;-73
2022/07/29 05:11:06;;;;;;;5.13;1.53;;;21.30;71.50;;;;;;4994861;28;20930;-74
2022/07/29 05:13:32;;;;;;;4.00;1.00;;;21.40;71.70;;;;;;4993583;28;20199;-74
2022/07/29 05:15:58;;;;;;;7.67;0.90;;;21.40;71.60;;;;;;4993463;28;20175;-73
2022/07/29 05:18:25;;;;;;;2.30;1.00;;;21.40;71.70;;;;;;5009516;28;21227;-73
2022/07/29 05:20:51;;;;;;;2.67;1.20;;;21.50;71.60;;;;;;4994684;28;20175;-73
2022/07/29 05:23:17;;;;;;;4.07;1.40;;;21.50;71.40;;;;;;4993305;28;20594;-73
2022/07/29 05:25:43;;;;;;;2.13;0.90;;;21.50;71.50;;;;;;4976683;28;20580;-73
2022/07/29 05:28:09;;;;;;;5.37;1.27;;;21.60;71.80;;;;;;4993137;28;20669;-73
2022/07/29 05:30:35;;;;;;;4.80;1.10;;;21.60;72.00;;;;;;4992087;28;20179;-73
2022/07/29 05:33:01;;;;;;;6.80;1.60;;;21.70;72.10;;;;;;5008174;28;21030;-74
2022/07/29 05:35:27;;;;;;;4.80;1.57;;;21.80;72.00;;;;;;4990573;28;20602;-74
2022/07/29 05:37:53;;;;;;;3.20;1.47;;;21.80;72.20;;;;;;4992393;28;20604;-73
2022/07/29 05:40:20;;;;;;;3.63;1.10;;;21.90;72.40;;;;;;4991659;28;20617;-73
2022/07/29 05:42:45;;;;;;;4.10;1.40;;;22.00;72.30;;;;;;4993944;28;20605;-74
2022/07/29 05:45:11;;;;;;;5.37;1.20;;;22.00;72.20;;;;;;4994697;28;20570;-74
2022/07/29 05:47:37;;;;;;;4.07;1.00;;;22.10;72.20;;;;;;4995059;28;20205;-74
2022/07/29 05:50:04;;;;;;;4.77;0.83;;;22.10;72.10;;;;;;4992364;28;20179;-74
2022/07/29 05:52:30;;;;;;;3.20;0.93;;;22.20;72.10;;;;;;4993742;28;20199;-73
2022/07/29 05:54:56;;;;;;;3.90;1.10;;;22.20;72.10;;;;;;4993232;28;20589;-74
2022/07/29 05:57:24;;;;;;;2.83;1.67;;;22.30;72.10;;;;;;4993843;28;20183;-73
2022/07/29 05:59:51;;;;;;;2.53;1.10;;;22.30;71.70;;;;;;4993285;28;20688;-74
2022/07/29 06:02:17;;;;;;;2.27;1.10;;;22.40;71.60;;;;;;4993034;28;20965;-73
2022/07/29 06:04:43;;;;;;;1.83;0.90;;;22.40;71.80;;;;;;4993518;28;20581;-74
2022/07/29 06:07:09;;;;;;;2.10;0.80;;;22.40;72.50;;;;;;4993721;28;20621;-73
2022/07/29 06:09:34;;;;;;;2.50;1.07;;;22.50;71.50;;;;;;4993499;28;20175;-73
2022/07/29 06:12:00;;;;;;;3.50;0.90;;;22.50;71.40;;;;;;4993491;28;20279;-73
2022/07/29 06:14:28;;;;;;;2.10;0.90;;;22.60;71.40;;;;;;4993408;28;20190;-74
2022/07/29 06:16:54;;;;;;;2.50;0.93;;;22.70;71.50;;;;;;4993126;28;20672;-73
2022/07/29 06:19:20;;;;;;;2.77;1.00;;;22.70;70.90;;;;;;4993251;28;20625;-73
2022/07/29 06:21:46;;;;;;;3.60;1.00;;;22.70;70.80;;;;;;4993252;28;20621;-74
2022/07/29 06:24:13;;;;;;;6.00;1.40;;;22.80;70.80;;;;;;4993359;28;20171;-74
2022/07/29 06:26:40;;;;;;;2.63;0.90;;;22.80;70.70;;;;;;4988648;28;20654;-79
2022/07/29 06:29:06;;;;;;;2.63;0.97;;;22.80;70.60;;;;;;4989050;28;20606;-75
2022/07/29 06:31:32;;;;;;;2.63;0.90;;;22.80;70.30;;;;;;4973429;28;20599;-75
2022/07/29 06:33:58;;;;;;;2.73;0.70;;;22.80;70.30;;;;;;4973690;28;20633;-75
2022/07/29 06:36:24;;;;;;;3.63;1.30;;;22.90;70.30;;;;;;4973613;28;20594;-75
2022/07/29 06:38:51;;;;;;;5.77;1.10;;;22.90;70.30;;;;;;4974103;28;20234;-75
2022/07/29 06:41:17;;;;;;;3.93;1.50;;;22.80;70.30;;;;;;4988536;28;20622;-75
2022/07/29 06:43:45;;;;;;;4.50;1.20;;;22.80;70.40;;;;;;4973626;28;20200;-75
2022/07/29 06:46:14;;;;;;;2.43;1.00;;;22.80;70.70;;;;;;4974557;28;20560;-77
2022/07/29 06:48:41;;;;;;;3.10;1.43;;;22.70;70.60;;;;;;4973767;28;20633;-76
2022/07/29 06:51:08;;;;;;;3.50;1.20;;;22.70;70.80;;;;;;4972389;28;20575;-77
2022/07/29 06:53:35;;;;;;;2.73;0.90;;;22.60;70.80;;;;;;4972398;28;20603;-77
2022/07/29 06:56:03;;;;;;;3.20;0.97;;;22.60;71.10;;;;;;4973334;28;20578;-77
2022/07/29 06:58:30;;;;;;;4.33;1.00;;;22.50;71.10;;;;;;4988515;28;20634;-77
2022/07/29 07:01:02;;;;;;;2.77;0.90;;;22.50;71.10;;;;;;4973352;28;20878;-76
2022/07/29 07:03:28;;;;;;;2.47;1.00;;;22.50;71.50;;;;;;4973336;28;21151;-76
2022/07/29 07:05:54;;;;;;;4.40;0.97;;;22.50;71.70;;;;;;4986739;28;20607;-75
2022/07/29 07:08:21;;;;;;;3.40;1.40;;;22.50;72.20;;;;;;4991980;28;20633;-75
2022/07/29 07:10:47;;;;;;;1.90;1.00;;;22.40;73.90;;;;;;4991203;28;20628;-76
2022/07/29 07:13:14;;;;;;;5.63;1.67;;;22.40;74.10;;;;;;4992314;28;20624;-75
2022/07/29 07:15:40;;;;;;;3.77;1.37;;;22.40;75.00;;;;;;4992141;28;20601;-76
2022/07/29 07:18:06;;;;;;;5.43;1.80;;;22.40;76.20;;;;;;4992475;28;20566;-76
2022/07/29 07:20:34;;;;;;;2.47;1.00;;;22.30;77.10;;;;;;4992301;28;20571;-76
2022/07/29 07:23:00;;;;;;;2.90;1.27;;;22.40;78.20;;;;;;4991064;28;20676;-75
2022/07/29 07:25:27;;;;;;;2.43;1.33;;;22.40;79.00;;;;;;4980997;28;20629;-76
2022/07/29 07:27:53;;;;;;;4.27;1.23;;;22.40;79.70;;;;;;4973402;28;21218;-76
2022/07/29 07:30:19;;;;;;;3.77;1.30;;;22.40;79.60;;;;;;4993956;28;20590;-75
2022/07/29 07:32:44;;;;;;;3.00;1.93;;;22.40;80.90;;;;;;5003681;28;20217;-77
2022/07/29 07:35:11;;;;;;;4.60;1.70;;;22.40;80.90;;;;;;5010768;28;20615;-76
2022/07/29 07:37:37;;;;;;;3.33;1.10;;;22.40;81.50;;;;;;5010776;28;20178;-77
2022/07/29 07:40:04;;;;;;;4.30;1.37;;;22.50;82.20;;;;;;5011368;28;20617;-75
2022/07/29 07:42:30;;;;;;;3.00;1.13;;;22.50;82.50;;;;;;5010513;28;20652;-76
2022/07/29 07:44:56;;;;;;;2.90;1.40;;;22.50;82.80;;;;;;5012414;28;21146;-76
2022/07/29 07:47:23;;;;;;;5.80;1.60;;;22.50;83.00;;;;;;5011985;28;20669;-76
2022/07/29 07:49:50;;;;;;;2.40;1.40;;;22.50;83.40;;;;;;5011903;28;20177;-76
2022/07/29 07:52:17;;;;;;;3.80;1.30;;;22.40;83.70;;;;;;5011878;28;20708;-76
2022/07/29 07:54:44;;;;;;;2.53;1.20;;;22.40;84.30;;;;;;5009523;28;20573;-76
2022/07/29 07:57:13;;;;;;;3.40;1.30;;;22.40;84.30;;;;;;5012050;28;20569;-76
2022/07/29 07:59:40;;;;;;;3.13;1.10;;;22.30;85.10;;;;;;5011525;28;20621;-76
2022/07/29 08:02:06;;;;;;;4.70;1.00;;;22.40;85.00;;;;;;5011950;28;20597;-77
2022/07/29 08:04:33;;;;;;;9.43;1.70;;;22.30;85.40;;;;;;4994028;28;20565;-77
2022/07/29 08:06:59;;;;;;;8.93;7.23;;;22.40;86.10;;;;;;5011871;28;20576;-76
2022/07/29 08:09:26;;;;;;;15.30;11.53;;;22.40;86.80;;;;;;5011620;28;20578;-76
2022/07/29 08:11:53;;;;;;;17.60;12.67;;;22.40;87.30;;;;;;5026839;28;20636;-76
2022/07/29 08:14:19;;;;;;;21.20;14.83;;;22.40;87.80;;;;;;5011252;28;20672;-76
2022/07/29 08:16:45;;;;;;;17.23;12.07;;;22.40;88.60;;;;;;5011490;28;20603;-76
2022/07/29 08:19:11;;;;;;;14.70;10.13;;;22.50;88.90;;;;;;5010555;28;20969;-76
2022/07/29 08:21:37;;;;;;;15.17;9.73;;;22.50;89.20;;;;;;5011342;28;20224;-76
2022/07/29 08:26:47;;;;;;;6.97;3.40;;;22.50;89.60;;;;;;5011596;28;20572;-76
2022/07/29 08:29:13;;;;;;;5.80;2.90;;;22.50;89.10;;;;;;5011408;28;20611;-76
2022/07/29 08:31:40;;;;;;;6.70;1.90;;;22.50;89.50;;;;;;5011273;28;20288;-77
2022/07/29 08:34:06;;;;;;;6.17;1.90;;;22.50;89.40;;;;;;5011267;28;20174;-76
2022/07/29 08:36:33;;;;;;;5.90;1.70;;;22.50;89.10;;;;;;5011527;28;20700;-76
2022/07/29 08:38:59;;;;;;;5.77;1.90;;;22.50;89.40;;;;;;5011040;28;20660;-76
2022/07/29 08:41:26;;;;;;;3.70;1.50;;;22.60;90.00;;;;;;5011216;28;20576;-76
2022/07/29 08:43:52;;;;;;;3.87;1.70;;;22.60;90.30;;;;;;5011236;28;20572;-76
2022/07/29 08:46:18;;;;;;;4.10;1.63;;;22.60;90.40;;;;;;5010848;28;20702;-76
2022/07/29 08:48:44;;;;;;;2.53;1.37;;;22.70;90.80;;;;;;5011456;28;20667;-76
2022/07/29 08:51:18;;;;;;;9.70;1.40;;;22.80;90.90;;;;;;5010062;28;20621;-76
2022/07/29 08:53:45;;;;;;;5.33;1.40;;;22.80;91.10;;;;;;5011414;28;20193;-76
2022/07/29 08:56:18;;;;;;;5.93;1.60;;;22.90;91.30;;;;;;5011032;28;20576;-76
2022/07/29 08:58:46;;;;;;;5.70;2.40;;;23.00;91.60;;;;;;5011386;28;20613;-76
2022/07/29 09:01:15;;;;;;;5.17;1.80;;;23.10;91.50;;;;;;5011161;28;20565;-76
2022/07/29 09:03:44;;;;;;;4.40;1.77;;;23.20;91.50;;;;;;5011337;28;21190;-76
2022/07/29 09:06:14;;;;;;;4.60;1.90;;;23.30;91.50;;;;;;5013571;28;20577;-76
2022/07/29 09:08:40;;;;;;;4.00;1.60;;;23.50;91.60;;;;;;5029988;28;20994;-76
2022/07/29 09:11:07;;;;;;;5.27;1.47;;;23.50;91.50;;;;;;5014639;28;20918;-76
2022/07/29 09:13:33;;;;;;;6.07;1.97;;;23.60;91.60;;;;;;5014563;28;20665;-76
2022/07/29 09:15:59;;;;;;;6.17;1.90;;;23.60;91.60;;;;;;5014394;28;20569;-76
2022/07/29 09:18:45;;;;;;;3.53;2.27;;;23.60;91.60;;;;;;4996956;28;20629;-76
2022/07/29 09:24:13;;;;;;;4.53;1.90;;;23.60;91.40;;;;;;5014580;28;21191;-76
2022/07/29 09:26:40;;;;;;;4.63;1.70;;;23.50;91.70;;;;;;5014631;28;20580;-76
2022/07/29 09:29:14;;;;;;;3.07;1.70;;;23.50;91.70;;;;;;5014559;28;20569;-76
2022/07/29 09:31:43;;;;;;;3.90;1.90;;;23.50;92.00;;;;;;5014053;28;21090;-76
2022/07/29 09:34:10;;;;;;;8.47;2.23;;;23.60;92.10;;;;;;5014270;28;20581;-76
2022/07/29 09:36:41;;;;;;;5.60;1.80;;;23.60;92.30;;;;;;5015412;28;20576;-76
2022/07/29 09:39:07;;;;;;;7.20;3.00;;;23.80;92.80;;;;;;5014911;28;20624;-76
2022/07/29 09:41:52;;;;;;;3.77;1.80;;;24.00;93.10;;;;;;5013811;28;20615;-76
2022/07/29 09:44:18;;;;;;;4.40;2.10;;;24.20;93.00;;;;;;5013859;28;20236;-76
2022/07/29 09:47:08;;;;;;;4.33;1.90;;;24.50;93.00;;;;;;5013953;28;20661;-76
2022/07/29 09:49:35;;;;;;;9.00;1.97;;;24.80;92.50;;;;;;5014176;28;20664;-76
2022/07/29 09:52:07;;;;;;;4.77;1.60;;;25.10;92.30;;;;;;5012600;28;20957;-76
2022/07/29 09:54:36;;;;;;;2.90;1.50;;;25.40;91.70;;;;;;5013779;28;20656;-76
2022/07/29 09:57:09;;;;;;;4.17;1.40;;;25.60;91.50;;;;;;5013805;28;20635;-76
2022/07/29 09:59:35;;;;;;;5.03;1.40;;;25.80;91.00;;;;;;5013824;28;20624;-76
2022/07/29 10:02:01;;;;;;;5.87;1.40;;;26.00;90.60;;;;;;4996234;28;20768;-76
2022/07/29 10:04:40;;;;;;;2.70;1.43;;;26.10;90.20;;;;;;5013574;28;20196;-76
2022/07/29 10:07:06;;;;;;;3.90;1.40;;;26.20;89.60;;;;;;5013895;28;21379;-76
2022/07/29 10:09:33;;;;;;;3.20;1.73;;;26.30;88.90;;;;;;5013735;28;20959;-76
2022/07/29 10:12:14;;;;;;;6.43;1.27;;;26.30;88.00;;;;;;5013653;28;20601;-76
2022/07/29 10:14:41;;;;;;;4.40;1.20;;;26.40;87.60;;;;;;5017995;28;20635;-76
2022/07/29 10:17:09;;;;;;;2.83;1.20;;;26.50;86.80;;;;;;5016638;28;20684;-76
2022/07/29 10:19:37;;;;;;;4.40;2.00;;;26.50;86.60;;;;;;5015465;28;20648;-76
2022/07/29 10:22:05;;;;;;;2.30;1.57;;;26.50;85.90;;;;;;5013755;28;20600;-76
2022/07/29 10:24:32;;;;;;;2.60;1.50;;;26.50;85.80;;;;;;5029348;28;20600;-76
2022/07/29 10:27:00;;;;;;;2.23;1.40;;;26.60;86.10;;;;;;5013688;28;20648;-76
2022/07/29 10:29:28;;;;;;;2.73;1.87;;;26.70;86.50;;;;;;5013676;28;20589;-76
2022/07/29 10:32:33;;;;;;;3.30;1.70;;;26.80;86.30;;;;;;5013922;28;20613;-76
2022/07/29 10:35:11;;;;;;;2.90;1.40;;;26.90;85.00;;;;;;5013805;28;20653;-77
2022/07/29 10:38:02;;;;;;;4.50;2.40;;;27.00;84.90;;;;;;5013219;28;20601;-75
2022/07/29 10:43:35;;;;;;;3.80;1.30;;;27.30;84.70;;;;;;5012094;28;20589;-76
2022/07/29 10:46:02;;;;;;;4.23;1.60;;;27.80;85.50;;;;;;5013340;28;20953;-75
2022/07/29 10:48:28;;;;;;;2.87;1.50;;;28.40;87.50;;;;;;5012264;28;20573;-76
2022/07/29 10:51:03;;;;;;;4.93;1.33;;;29.10;86.90;;;;;;5028511;28;20570;-76
2022/07/29 10:53:52;;;;;;;5.90;1.37;;;29.80;85.10;;;;;;5013093;28;20659;-76
2022/07/29 10:56:25;;;;;;;3.00;1.63;;;30.40;84.00;;;;;;5012960;28;20580;-76
2022/07/29 10:59:18;;;;;;;2.50;1.60;;;30.90;78.90;;;;;;5011717;28;20708;-76
2022/07/29 11:01:44;;;;;;;2.30;1.50;;;31.30;76.30;;;;;;5011338;28;20948;-76
2022/07/29 11:04:10;;;;;;;3.40;1.53;;;31.60;76.10;;;;;;5027662;28;20958;-76
2022/07/29 11:07:01;;;;;;;4.40;1.37;;;31.90;74.70;;;;;;5012748;28;20577;-76
2022/07/29 11:09:29;;;;;;;4.83;1.73;;;32.20;73.20;;;;;;4995036;28;20606;-76
2022/07/29 11:11:56;;;;;;;3.20;1.07;;;32.60;71.40;;;;;;5012719;28;21192;-76
2022/07/29 11:14:53;;;;;;;3.50;1.20;;;33.00;69.40;;;;;;5011616;28;20582;-76
2022/07/29 11:17:19;;;;;;;2.97;1.33;;;33.20;64.60;;;;;;5011527;28;20574;-76
2022/07/29 11:19:45;;;;;;;4.27;2.10;;;33.60;65.30;;;;;;5012077;28;20609;-76
2022/07/29 11:22:30;;;;;;;3.90;1.87;;;33.80;63.90;;;;;;5012617;28;20190;-76
2022/07/29 11:25:16;;;;;;;2.40;1.37;;;34.10;61.90;;;;;;5012128;28;20578;-76
2022/07/29 11:27:42;;;;;;;2.80;1.10;;;34.20;60.40;;;;;;5012202;28;20620;-76
2022/07/29 11:30:09;;;;;;;2.70;1.07;;;34.40;59.00;;;;;;5011692;28;20571;-76
2022/07/29 11:32:44;;;;;;;3.50;1.30;;;34.50;58.00;;;;;;5010920;28;20681;-76
2022/07/29 11:35:10;;;;;;;4.27;2.20;;;34.70;58.30;;;;;;5010817;28;20579;-76
2022/07/29 11:37:36;;;;;;;4.37;1.67;;;34.90;57.80;;;;;;5012309;28;20567;-76
2022/07/29 11:40:06;;;;;;;3.97;1.23;;;35.00;56.10;;;;;;5012001;28;20639;-76
2022/07/29 11:42:34;;;;;;;3.77;1.60;;;35.10;54.90;;;;;;5012210;28;20629;-76
2022/07/29 11:45:07;;;;;;;2.90;1.20;;;35.20;54.30;;;;;;5012120;28;20566;-76
2022/07/29 11:47:36;;;;;;;2.87;1.07;;;35.20;53.40;;;;;;5012405;28;20576;-76
2022/07/29 11:50:04;;;;;;;4.73;1.40;;;35.10;52.10;;;;;;5012202;28;20561;-76
2022/07/29 11:52:43;;;;;;;4.43;1.37;;;35.00;52.30;;;;;;5010953;28;20616;-76
2022/07/29 11:55:15;;;;;;;2.33;1.20;;;34.90;51.50;;;;;;5012347;28;20567;-76
2022/07/29 11:57:55;;;;;;;2.53;1.10;;;34.90;51.20;;;;;;5010765;28;21182;-76
2022/07/29 12:00:24;;;;;;;2.73;1.00;;;34.70;50.10;;;;;;5010673;28;20626;-76
2022/07/29 12:02:50;;;;;;;4.07;1.93;;;34.50;50.20;;;;;;5013138;28;20600;-76
2022/07/29 12:05:16;;;;;;;4.50;1.20;;;34.20;49.70;;;;;;5010683;28;20588;-76
2022/07/29 12:07:42;;;;;;;4.00;1.30;;;34.00;50.60;;;;;;5011170;28;20561;-76
2022/07/29 12:10:08;;;;;;;4.03;1.63;;;33.80;50.20;;;;;;5011532;28;20576;-76
2022/07/29 12:12:35;;;;;;;2.80;1.37;;;33.70;50.40;;;;;;5011899;28;20193;-76
2022/07/29 12:15:19;;;;;;;4.53;1.30;;;33.60;50.30;;;;;;5010607;28;20589;-76
2022/07/29 12:17:45;;;;;;;3.73;1.93;;;33.50;49.30;;;;;;5012181;28;20584;-76
2022/07/29 12:20:12;;;;;;;2.57;1.40;;;33.30;49.50;;;;;;5011616;28;20625;-76
2022/07/29 12:22:41;;;;;;;2.60;1.43;;;33.10;49.30;;;;;;5011039;28;20605;-76
2022/07/29 12:25:10;;;;;;;3.73;1.13;;;32.90;49.00;;;;;;5011735;28;20580;-76
2022/07/29 12:27:38;;;;;;;3.50;1.23;;;32.60;48.90;;;;;;5012121;28;20647;-76
2022/07/29 12:30:12;;;;;;;2.03;1.00;;;32.40;48.70;;;;;;5011750;28;20592;-76
2022/07/29 12:32:44;;;;;;;3.70;1.43;;;32.20;49.20;;;;;;5011792;28;20991;-75
2022/07/29 12:35:15;;;;;;;2.63;1.00;;;32.10;49.60;;;;;;5010354;28;20572;-76
2022/07/29 12:37:42;;;;;;;3.53;1.10;;;32.00;49.60;;;;;;5027301;28;20589;-76
2022/07/29 12:40:12;;;;;;;2.17;0.90;;;32.00;49.70;;;;;;5012776;28;20719;-76
2022/07/29 12:42:39;;;;;;;2.17;0.80;;;31.90;49.40;;;;;;5014305;28;20597;-77
2022/07/29 12:45:06;;;;;;;2.33;0.80;;;31.90;49.20;;;;;;5015495;28;20919;-76
2022/07/29 12:47:32;;;;;;;1.90;0.90;;;31.90;49.30;;;;;;5015495;28;20649;-76
2022/07/29 12:50:14;;;;;;;3.17;1.17;;;31.90;49.30;;;;;;5015253;28;21117;-76
2022/07/29 12:52:40;;;;;;;2.03;0.90;;;31.90;48.40;;;;;;5014022;28;20605;-75
2022/07/29 12:55:06;;;;;;;3.23;1.03;;;31.90;48.40;;;;;;5030172;28;20677;-76
2022/07/29 12:57:46;;;;;;;2.17;0.90;;;31.80;48.10;;;;;;5015924;28;20571;-76
2022/07/29 13:00:13;;;;;;;2.90;1.00;;;31.60;47.70;;;;;;5014971;28;20658;-76
2022/07/29 13:02:41;;;;;;;2.97;1.10;;;31.50;47.90;;;;;;5015123;28;20641;-76
2022/07/29 13:05:08;;;;;;;2.87;1.10;;;31.40;48.00;;;;;;5015073;28;21004;-76
2022/07/29 13:07:36;;;;;;;3.97;1.10;;;31.30;47.70;;;;;;5015346;28;20916;-76